sensor_id;sensor_type;location;lat;lon;timestamp;temperature;humidity
14154;DHT22;7157;53.144;7.570;2023-07-13T00:08:40;17.24;81.12
14154;DHT22;7157;53.144;7.570;2023-07-13T00:18:44;16.88;82.97
14154;DHT22;7157;53.144;7.570;2023-07-13T00:28:47;16.88;83.26
14154;DHT22;7157;53.144;7.570;2023-07-13T00:38:51;16.93;82.37
14154;DHT22;7157;53.144;7.570;2023-07-13T00:48:58;16.94;82.12
14154;DHT22;7157;53.144;7.570;2023-07-13T00:59:06;16.95;82.07
14154;DHT22;7157;53.144;7.570;2023-07-13T01:09:10;16.73;82.84
14154;DHT22;7157;53.144;7.570;2023-07-13T01:19:33;16.62;83.60
14154;DHT22;7157;53.144;7.570;2023-07-13T01:29:41;16.74;83.65
14154;DHT22;7157;53.144;7.570;2023-07-13T01:39:44;16.69;84.48
14154;DHT22;7157;53.144;7.570;2023-07-13T01:49:50;16.66;85.22
14154;DHT22;7157;53.144;7.570;2023-07-13T01:59:53;16.84;84.83
14154;DHT22;7157;53.144;7.570;2023-07-13T02:09:57;16.84;85.61
14154;DHT22;7157;53.144;7.570;2023-07-13T02:20:00;16.99;85.71
14154;DHT22;7157;53.144;7.570;2023-07-13T02:30:07;17.00;86.45
14154;DHT22;7157;53.144;7.570;2023-07-13T02:40:10;16.96;87.86
14154;DHT22;7157;53.144;7.570;2023-07-13T02:50:14;17.10;87.83
14154;DHT22;7157;53.144;7.570;2023-07-13T03:00:17;17.26;87.27
14154;DHT22;7157;53.144;7.570;2023-07-13T03:10:22;17.22;87.54
14154;DHT22;7157;53.144;7.570;2023-07-13T03:20:25;17.25;87.58
14154;DHT22;7157;53.144;7.570;2023-07-13T03:30:30;17.21;88.32
14154;DHT22;7157;53.144;7.570;2023-07-13T03:40:33;17.25;88.17
14154;DHT22;7157;53.144;7.570;2023-07-13T03:50:37;17.16;89.53
14154;DHT22;7157;53.144;7.570;2023-07-13T04:00:40;17.31;89.12
14154;DHT22;7157;53.144;7.570;2023-07-13T04:10:44;17.41;89.61
14154;DHT22;7157;53.144;7.570;2023-07-13T04:20:47;17.43;89.76
14154;DHT22;7157;53.144;7.570;2023-07-13T04:30:52;17.46;90.10
14154;DHT22;7157;53.144;7.570;2023-07-13T04:40:55;17.47;90.50
14154;DHT22;7157;53.144;7.570;2023-07-13T04:51:00;17.72;89.97
14154;DHT22;7157;53.144;7.570;2023-07-13T05:01:05;17.64;90.30
14154;DHT22;7157;53.144;7.570;2023-07-13T05:11:10;17.65;90.06
14154;DHT22;7157;53.144;7.570;2023-07-13T05:21:13;17.88;89.88
14154;DHT22;7157;53.144;7.570;2023-07-13T05:31:17;18.04;89.55
14154;DHT22;7157;53.144;7.570;2023-07-13T05:41:21;18.26;88.78
14154;DHT22;7157;53.144;7.570;2023-07-13T05:51:25;18.04;89.42
14154;DHT22;7157;53.144;7.570;2023-07-13T06:01:29;18.06;90.15
14154;DHT22;7157;53.144;7.570;2023-07-13T06:11:34;18.44;89.22
14154;DHT22;7157;53.144;7.570;2023-07-13T06:21:37;18.66;88.93
14154;DHT22;7157;53.144;7.570;2023-07-13T06:31:41;18.97;88.20
14154;DHT22;7157;53.144;7.570;2023-07-13T06:41:45;19.10;87.90
14154;DHT22;7157;53.144;7.570;2023-07-13T06:51:49;19.29;86.99
14154;DHT22;7157;53.144;7.570;2023-07-13T07:01:52;19.53;86.18
14154;DHT22;7157;53.144;7.570;2023-07-13T07:11:56;19.94;84.86
14154;DHT22;7157;53.144;7.570;2023-07-13T07:22:05;20.13;83.96
14154;DHT22;7157;53.144;7.570;2023-07-13T07:32:09;20.14;82.59
14154;DHT22;7157;53.144;7.570;2023-07-13T07:42:32;20.58;80.49
14154;DHT22;7157;53.144;7.570;2023-07-13T07:52:36;20.68;78.28
14154;DHT22;7157;53.144;7.570;2023-07-13T08:02:39;21.02;76.36
14154;DHT22;7157;53.144;7.570;2023-07-13T08:13:04;21.62;73.86
14154;DHT22;7157;53.144;7.570;2023-07-13T08:23:13;21.53;72.23
14154;DHT22;7157;53.144;7.570;2023-07-13T08:33:19;22.22;68.90
14154;DHT22;7157;53.144;7.570;2023-07-13T08:43:25;22.40;66.23
14154;DHT22;7157;53.144;7.570;2023-07-13T08:53:34;22.36;65.53
14154;DHT22;7157;53.144;7.570;2023-07-13T09:03:42;22.29;66.42
14154;DHT22;7157;53.144;7.570;2023-07-13T09:13:55;22.97;64.17
14154;DHT22;7157;53.144;7.570;2023-07-13T09:24:17;21.74;65.30
14154;DHT22;7157;53.144;7.570;2023-07-13T09:34:26;21.05;71.90
14154;DHT22;7157;53.144;7.570;2023-07-13T09:44:34;19.77;84.74
14154;DHT22;7157;53.144;7.570;2023-07-13T09:54:38;18.58;91.70
14154;DHT22;7157;53.144;7.570;2023-07-13T10:04:41;17.74;96.46
14154;DHT22;7157;53.144;7.570;2023-07-13T10:14:47;17.76;98.13
14154;DHT22;7157;53.144;7.570;2023-07-13T10:24:51;18.22;96.94
14154;DHT22;7157;53.144;7.570;2023-07-13T10:34:56;18.83;95.91
14154;DHT22;7157;53.144;7.570;2023-07-13T10:45:11;18.12;94.39
14154;DHT22;7157;53.144;7.570;2023-07-13T10:55:35;18.63;92.95
14154;DHT22;7157;53.144;7.570;2023-07-13T11:05:42;19.48;89.88
14154;DHT22;7157;53.144;7.570;2023-07-13T11:15:48;20.33;84.42
14154;DHT22;7157;53.144;7.570;2023-07-13T11:25:51;21.33;79.46
14154;DHT22;7157;53.144;7.570;2023-07-13T11:36:02;22.20;72.98
14154;DHT22;7157;53.144;7.570;2023-07-13T11:46:13;22.69;77.47
14154;DHT22;7157;53.144;7.570;2023-07-13T11:56:18;26.16;62.15
14154;DHT22;7157;53.144;7.570;2023-07-13T12:06:26;26.24;56.61
14154;DHT22;7157;53.144;7.570;2023-07-13T12:16:32;24.84;52.36
14154;DHT22;7157;53.144;7.570;2023-07-13T12:26:35;22.02;66.17
14154;DHT22;7157;53.144;7.570;2023-07-13T12:36:46;21.82;65.69
14154;DHT22;7157;53.144;7.570;2023-07-13T12:46:55;26.60;49.08
14154;DHT22;7157;53.144;7.570;2023-07-13T12:57:00;27.27;46.93
14154;DHT22;7157;53.144;7.570;2023-07-13T13:07:08;27.16;50.11
14154;DHT22;7157;53.144;7.570;2023-07-13T13:17:19;27.05;46.67
14154;DHT22;7157;53.144;7.570;2023-07-13T13:27:23;25.92;50.93
14154;DHT22;7157;53.144;7.570;2023-07-13T13:37:27;25.51;51.59
14154;DHT22;7157;53.144;7.570;2023-07-13T13:47:31;24.97;52.78
14154;DHT22;7157;53.144;7.570;2023-07-13T13:57:38;24.76;54.13
14154;DHT22;7157;53.144;7.570;2023-07-13T14:07:41;24.08;57.31
14154;DHT22;7157;53.144;7.570;2023-07-13T14:17:45;23.46;58.68
14154;DHT22;7157;53.144;7.570;2023-07-13T14:39:16;24.17;46.49
14154;DHT22;7157;53.144;7.570;2023-07-13T14:49:42;24.27;50.36
14154;DHT22;7157;53.144;7.570;2023-07-13T15:00:01;23.87;50.48
14154;DHT22;7157;53.144;7.570;2023-07-13T15:10:15;23.69;55.52
14154;DHT22;7157;53.144;7.570;2023-07-13T15:20:25;23.76;53.86
14154;DHT22;7157;53.144;7.570;2023-07-13T15:30:36;24.00;53.70
14154;DHT22;7157;53.144;7.570;2023-07-13T15:40:43;23.62;57.84
14154;DHT22;7157;53.144;7.570;2023-07-13T15:50:48;23.06;57.54
14154;DHT22;7157;53.144;7.570;2023-07-13T16:00:53;23.15;56.55
14154;DHT22;7157;53.144;7.570;2023-07-13T16:10:56;23.13;59.44
14154;DHT22;7157;53.144;7.570;2023-07-13T16:21:01;22.61;60.66
14154;DHT22;7157;53.144;7.570;2023-07-13T16:31:04;22.50;62.50
14154;DHT22;7157;53.144;7.570;2023-07-13T16:41:13;22.42;62.68
14154;DHT22;7157;53.144;7.570;2023-07-13T16:51:16;22.28;61.70
14154;DHT22;7157;53.144;7.570;2023-07-13T17:01:20;22.78;61.07
14154;DHT22;7157;53.144;7.570;2023-07-13T17:11:24;22.39;62.51
14154;DHT22;7157;53.144;7.570;2023-07-13T17:21:29;22.16;63.45
14154;DHT22;7157;53.144;7.570;2023-07-13T17:31:33;22.10;63.89
14154;DHT22;7157;53.144;7.570;2023-07-13T17:41:37;22.18;62.18
14154;DHT22;7157;53.144;7.570;2023-07-13T17:51:46;22.50;59.74
14154;DHT22;7157;53.144;7.570;2023-07-13T18:01:51;22.80;58.09
14154;DHT22;7157;53.144;7.570;2023-07-13T18:11:54;22.85;57.87
14154;DHT22;7157;53.144;7.570;2023-07-13T18:22:02;22.50;57.00
14154;DHT22;7157;53.144;7.570;2023-07-13T18:43:28;22.12;59.61
14154;DHT22;7157;53.144;7.570;2023-07-13T18:53:31;21.76;61.25
14154;DHT22;7157;53.144;7.570;2023-07-13T19:03:35;21.34;62.50
14154;DHT22;7157;53.144;7.570;2023-07-13T19:13:39;21.04;64.73
14154;DHT22;7157;53.144;7.570;2023-07-13T19:23:46;20.73;66.45
14154;DHT22;7157;53.144;7.570;2023-07-13T19:33:49;20.55;67.88
14154;DHT22;7157;53.144;7.570;2023-07-13T19:43:54;20.28;69.45
14154;DHT22;7157;53.144;7.570;2023-07-13T19:53:59;20.03;71.44
14154;DHT22;7157;53.144;7.570;2023-07-13T20:04:04;19.87;73.73
14154;DHT22;7157;53.144;7.570;2023-07-13T20:14:16;19.77;75.38
14154;DHT22;7157;53.144;7.570;2023-07-13T20:24:20;19.63;76.30
14154;DHT22;7157;53.144;7.570;2023-07-13T20:34:25;19.42;78.58
14154;DHT22;7157;53.144;7.570;2023-07-13T20:44:32;19.33;78.66
14154;DHT22;7157;53.144;7.570;2023-07-13T20:54:35;19.17;79.85
14154;DHT22;7157;53.144;7.570;2023-07-13T21:04:40;18.83;82.98
14154;DHT22;7157;53.144;7.570;2023-07-13T21:14:44;18.54;84.60
14154;DHT22;7157;53.144;7.570;2023-07-13T21:24:48;18.57;84.67
14154;DHT22;7157;53.144;7.570;2023-07-13T21:34:51;18.56;85.81
14154;DHT22;7157;53.144;7.570;2023-07-13T21:44:55;18.54;86.77
14154;DHT22;7157;53.144;7.570;2023-07-13T21:55:00;18.59;86.42
14154;DHT22;7157;53.144;7.570;2023-07-13T22:05:12;18.37;87.24
14154;DHT22;7157;53.144;7.570;2023-07-13T22:15:16;18.29;86.46
14154;DHT22;7157;53.144;7.570;2023-07-13T22:25:22;18.17;87.55
14154;DHT22;7157;53.144;7.570;2023-07-13T22:35:24;18.19;87.61
14154;DHT22;7157;53.144;7.570;2023-07-13T22:45:30;18.04;87.45
14154;DHT22;7157;53.144;7.570;2023-07-13T22:55:33;17.82;87.97
14154;DHT22;7157;53.144;7.570;2023-07-13T23:05:39;17.59;88.34
14154;DHT22;7157;53.144;7.570;2023-07-13T23:15:42;17.36;89.21
14154;DHT22;7157;53.144;7.570;2023-07-13T23:25:49;17.23;89.68
14154;DHT22;7157;53.144;7.570;2023-07-13T23:35:54;17.17;89.86
14154;DHT22;7157;53.144;7.570;2023-07-13T23:46:03;17.03;90.47
14154;DHT22;7157;53.144;7.570;2023-07-13T23:56:16;17.00;90.89
